Time;durP1;ratioP1;P1;durP2;ratioP2;P2;SDS_P1;SDS_P2;PMS_P1;PMS_P2;Temp;Humidity;BMP_temperature;BMP_pressure;BME280_temperature;BME280_humidity;BME280_pressure;Samples;Min_cycle;Max_cycle;Signal;HPM_P1;HPM_P2
2023/08/16 00:02:06;;;;;;;0.00;0.00;;;;;;;14.97;87.35;100705.97;5028063;28;20049;-73
2023/08/16 00:04:31;;;;;;;0.00;0.00;;;;;;;14.92;87.27;100703.22;5062090;28;20029;-74
2023/08/16 00:06:57;;;;;;;0.00;0.00;;;;;;;14.91;87.51;100707.94;5032281;28;20116;-72
2023/08/16 00:09:22;;;;;;;0.00;0.00;;;;;;;14.90;86.99;100703.53;5031699;28;20408;-73
2023/08/16 00:11:48;;;;;;;0.00;0.00;;;;;;;14.84;87.48;100702.75;5050340;28;20023;-74
2023/08/16 00:14:16;;;;;;;0.00;0.00;;;;;;;14.87;87.45;100706.03;5027415;28;20018;-75
2023/08/16 00:16:44;;;;;;;0.00;0.00;;;;;;;14.72;88.08;100683.03;5022335;28;20072;-74
2023/08/16 00:19:10;;;;;;;0.00;0.00;;;;;;;14.83;88.13;100695.63;5047412;28;20436;-73
2023/08/16 00:21:35;;;;;;;0.00;0.00;;;;;;;14.84;88.36;100699.19;5050792;28;20025;-73
2023/08/16 00:24:04;;;;;;;0.00;0.00;;;;;;;14.83;88.99;100698.38;5028918;28;20405;-74
2023/08/16 00:26:30;;;;;;;0.00;0.00;;;;;;;14.84;89.49;100691.72;5019750;28;20734;-73
2023/08/16 00:28:55;;;;;;;0.00;0.00;;;;;;;14.80;89.46;100687.91;5033771;28;20078;-74
2023/08/16 00:31:21;;;;;;;0.00;0.00;;;;;;;14.79;89.64;100688.19;5033650;28;20029;-75
2023/08/16 00:33:47;;;;;;;0.00;0.00;;;;;;;14.77;89.88;100690.44;5056639;28;20064;-73
2023/08/16 00:36:13;;;;;;;0.00;0.00;;;;;;;14.72;90.24;100688.53;5052251;28;20104;-73
2023/08/16 00:38:42;;;;;;;0.00;0.00;;;;;;;14.68;90.02;100692.16;5037064;28;20029;-74
2023/08/16 00:41:09;;;;;;;0.00;0.00;;;;;;;14.67;90.21;100691.31;5033650;28;20044;-75
2023/08/16 00:43:35;;;;;;;0.00;0.00;;;;;;;14.65;90.75;100693.56;5042214;28;20076;-74
2023/08/16 00:46:00;;;;;;;0.00;0.00;;;;;;;14.61;91.19;100692.44;5048166;28;20730;-73
2023/08/16 00:48:30;;;;;;;0.00;0.00;;;;;;;14.57;91.34;100694.13;5053233;28;20033;-74
2023/08/16 00:50:55;;;;;;;0.00;0.00;;;;;;;14.53;91.41;100695.78;5031523;28;20029;-74
2023/08/16 00:53:22;;;;;;;0.00;0.00;;;;;;;14.47;91.58;100687.59;5045675;28;20044;-73
2023/08/16 00:55:47;;;;;;;0.00;0.00;;;;;;;14.47;91.64;100687.59;5032720;28;20083;-73
2023/08/16 00:58:14;;;;;;;0.00;0.00;;;;;;;14.49;91.82;100695.56;5051672;28;20056;-75
2023/08/16 01:00:40;;;;;;;0.00;0.00;;;;;;;14.52;92.43;100688.66;5053391;28;20049;-73
2023/08/16 01:03:05;;;;;;;0.00;0.00;;;;;;;14.55;92.67;100688.09;5033861;28;20067;-73
2023/08/16 01:05:31;;;;;;;0.00;0.00;;;;;;;14.53;92.68;100671.03;5067963;28;20654;-73
2023/08/16 01:07:57;;;;;;;0.00;0.00;;;;;;;14.54;92.80;100680.94;5034043;28;20840;-73
2023/08/16 01:10:29;;;;;;;0.00;0.00;;;;;;;14.55;93.13;100683.41;5024627;28;20041;-73
2023/08/16 01:13:07;;;;;;;0.00;0.00;;;;;;;14.57;93.18;100683.09;5034108;28;20491;-74
2023/08/16 01:15:36;;;;;;;0.00;0.00;;;;;;;14.58;93.53;100690.25;5023906;28;20039;-74
2023/08/16 01:18:02;;;;;;;0.00;0.00;;;;;;;14.56;93.97;100689.72;5066823;28;20025;-74
2023/08/16 01:20:30;;;;;;;0.00;0.00;;;;;;;14.55;94.29;100690.84;5041859;28;20719;-73
2023/08/16 01:23:34;;;;;;;0.00;0.00;;;;;;;14.48;94.49;100693.91;5050594;28;20044;-74
2023/08/16 01:26:08;;;;;;;0.00;0.00;;;;;;;14.49;94.66;100704.63;4980626;28;20091;-74
2023/08/16 01:28:36;;;;;;;0.00;0.00;;;;;;;14.46;94.55;100702.44;5051653;28;20025;-73
2023/08/16 01:31:05;;;;;;;0.00;0.00;;;;;;;14.43;94.72;100697.50;5025942;28;20021;-73
2023/08/16 01:33:30;;;;;;;0.00;0.00;;;;;;;14.46;95.20;100699.69;5033584;28;20025;-73
2023/08/16 01:35:56;;;;;;;0.00;0.00;;;;;;;14.46;95.46;100702.44;5032370;28;20462;-74
2023/08/16 01:38:21;;;;;;;0.00;0.00;;;;;;;14.42;95.43;100704.13;5032230;28;20068;-74
2023/08/16 01:40:57;;;;;;;0.00;0.00;;;;;;;14.42;95.36;100706.88;5040831;28;20033;-74
2023/08/16 01:43:22;;;;;;;0.00;0.00;;;;;;;14.41;95.89;100705.25;5034002;28;20033;-74
2023/08/16 01:45:51;;;;;;;0.00;0.00;;;;;;;14.37;95.31;100704.16;5063996;28;20465;-73
2023/08/16 01:48:18;;;;;;;0.00;0.00;;;;;;;14.33;95.87;100703.09;5043830;28;20083;-73
2023/08/16 01:50:44;;;;;;;0.00;0.00;;;;;;;14.36;95.74;100702.50;5051291;28;20051;-75
2023/08/16 01:53:09;;;;;;;0.00;0.00;;;;;;;14.33;96.03;100703.09;5030894;28;20025;-74
2023/08/16 01:55:35;;;;;;;0.00;0.00;;;;;;;14.27;96.43;100688.53;5049290;28;20051;-73
2023/08/16 01:58:02;;;;;;;0.00;0.00;;;;;;;14.31;96.44;100702.56;5050005;28;20029;-72
2023/08/16 02:00:27;;;;;;;0.00;0.00;;;;;;;14.27;96.08;100704.22;5046868;28;20028;-73
2023/08/16 02:02:53;;;;;;;0.00;0.00;;;;;;;14.25;96.49;100698.16;5039178;28;20392;-73
2023/08/16 02:05:18;;;;;;;0.00;0.00;;;;;;;14.24;96.29;100693.78;5059575;28;20033;-73
2023/08/16 02:07:43;;;;;;;0.00;0.00;;;;;;;14.25;95.90;100692.66;5060655;28;20091;-74
2023/08/16 02:10:09;;;;;;;0.00;0.00;;;;;;;14.27;95.97;100693.22;5047274;28;20849;-73
2023/08/16 02:12:34;;;;;;;0.00;0.00;;;;;;;14.28;95.59;100694.84;5066640;28;20032;-74
2023/08/16 02:15:00;;;;;;;0.00;0.00;;;;;;;14.28;95.42;100692.09;5050861;28;20565;-72
2023/08/16 02:17:25;;;;;;;0.00;0.00;;;;;;;14.28;95.39;100700.34;5029334;28;20039;-73
2023/08/16 02:19:51;;;;;;;0.00;0.00;;;;;;;14.21;95.42;100683.38;5063304;28;20340;-74
2023/08/16 02:22:16;;;;;;;0.00;0.00;;;;;;;14.24;95.26;100688.28;5049891;28;20489;-73
2023/08/16 02:24:42;;;;;;;0.00;0.00;;;;;;;14.24;94.74;100682.78;5059348;28;20051;-74
2023/08/16 02:27:07;;;;;;;0.00;0.00;;;;;;;14.24;94.83;100683.59;5033064;28;20032;-73
2023/08/16 02:29:32;;;;;;;0.00;0.00;;;;;;;14.27;94.61;100698.72;5050700;28;20033;-75
2023/08/16 02:31:58;;;;;;;0.00;0.00;;;;;;;14.22;94.69;100683.06;5033862;28;20029;-75
2023/08/16 02:34:23;;;;;;;0.00;0.00;;;;;;;14.21;94.14;100691.63;5035006;28;20040;-75
2023/08/16 02:36:49;;;;;;;0.00;0.00;;;;;;;14.18;94.64;100695.75;5060159;28;20036;-73
2023/08/16 02:39:14;;;;;;;0.00;0.00;;;;;;;14.07;94.05;100694.97;5064696;28;20068;-73
2023/08/16 02:41:40;;;;;;;0.00;0.00;;;;;;;14.03;94.04;100699.41;5049835;28;20025;-72
2023/08/16 02:44:05;;;;;;;0.00;0.00;;;;;;;13.97;94.48;100700.50;5049036;28;20029;-73
2023/08/16 02:46:31;;;;;;;0.00;0.00;;;;;;;13.91;94.76;100704.41;5066033;28;20025;-72
2023/08/16 02:48:56;;;;;;;0.00;0.00;;;;;;;13.88;94.38;100707.72;5033462;28;20025;-72
2023/08/16 02:51:21;;;;;;;0.00;0.00;;;;;;;13.80;94.41;100706.38;5049307;28;20479;-73
2023/08/16 02:53:47;;;;;;;0.00;0.00;;;;;;;13.76;94.26;100708.84;5030991;28;20088;-72
2023/08/16 02:56:12;;;;;;;0.00;0.00;;;;;;;13.74;94.78;100708.31;5044840;28;20120;-73
2023/08/16 02:58:38;;;;;;;0.00;0.00;;;;;;;13.67;94.59;100705.03;5042027;28;20328;-73
2023/08/16 03:01:03;;;;;;;0.00;0.00;;;;;;;13.67;94.48;100712.44;5006259;28;20022;-70
2023/08/16 03:03:29;;;;;;;0.00;0.00;;;;;;;13.62;94.48;100716.03;5062859;28;20013;-72
2023/08/16 03:05:54;;;;;;;0.00;0.00;;;;;;;13.59;94.38;100725.69;5059831;28;20864;-72
2023/08/16 03:08:19;;;;;;;0.00;0.00;;;;;;;13.54;94.18;100725.69;5041735;28;20037;-72
2023/08/16 03:10:45;;;;;;;0.00;0.00;;;;;;;13.47;94.81;100729.84;5029474;28;20026;-72
2023/08/16 03:13:10;;;;;;;0.00;0.00;;;;;;;13.39;94.48;100722.97;5043639;28;20041;-72
2023/08/16 03:15:36;;;;;;;0.00;0.00;;;;;;;13.40;94.61;100736.44;5049826;28;20021;-73
2023/08/16 03:18:01;;;;;;;0.00;0.00;;;;;;;13.37;94.74;100736.97;5066095;28;20028;-72
2023/08/16 03:20:29;;;;;;;0.00;0.00;;;;;;;13.32;93.95;100727.91;5050464;28;20032;-74
2023/08/16 03:22:55;;;;;;;0.00;0.00;;;;;;;13.28;94.18;100731.19;5016554;28;20755;-72
2023/08/16 03:25:20;;;;;;;0.00;0.00;;;;;;;13.26;94.77;100729.84;5031021;28;20035;-73
2023/08/16 03:27:46;;;;;;;0.00;0.00;;;;;;;13.20;94.60;100730.91;5058792;28;20494;-72
2023/08/16 03:30:11;;;;;;;0.00;0.00;;;;;;;13.18;94.25;100738.63;5022453;28;20021;-73
2023/08/16 03:32:37;;;;;;;0.00;0.00;;;;;;;13.19;94.05;100745.78;5031420;28;20033;-74
2023/08/16 03:35:04;;;;;;;0.00;0.00;;;;;;;13.13;94.67;100735.88;5029089;28;20028;-73
2023/08/16 03:37:31;;;;;;;0.00;0.00;;;;;;;13.10;94.06;100735.31;5045820;28;20552;-74
2023/08/16 03:39:57;;;;;;;0.00;0.00;;;;;;;13.09;94.36;100749.34;5058186;28;20052;-73
2023/08/16 03:42:23;;;;;;;0.00;0.00;;;;;;;13.01;94.20;100738.88;5062711;28;20051;-73
2023/08/16 03:44:48;;;;;;;0.00;0.00;;;;;;;13.03;94.76;100742.22;5058959;28;20025;-75
2023/08/16 03:47:14;;;;;;;0.00;0.00;;;;;;;13.00;94.52;100738.06;5048791;28;20119;-74
2023/08/16 03:49:40;;;;;;;0.00;0.00;;;;;;;12.98;94.12;100745.78;5047838;28;20111;-73
2023/08/16 03:52:06;;;;;;;0.00;0.00;;;;;;;12.96;94.12;100742.47;5040466;28;20567;-74
2023/08/16 03:54:31;;;;;;;0.00;0.00;;;;;;;12.93;94.66;100738.34;5048776;28;20713;-73
2023/08/16 03:56:57;;;;;;;0.00;0.00;;;;;;;12.93;94.47;100743.00;5065802;28;20072;-71
2023/08/16 03:59:23;;;;;;;0.00;0.00;;;;;;;12.90;94.29;100740.81;5047516;28;20033;-73
2023/08/16 04:01:48;;;;;;;0.00;0.00;;;;;;;12.92;94.24;100741.34;5031933;28;20355;-72
2023/08/16 04:04:14;;;;;;;0.00;0.00;;;;;;;12.95;94.54;100740.81;5053800;28;20025;-73
2023/08/16 04:06:39;;;;;;;0.00;0.00;;;;;;;12.95;94.29;100737.25;5018134;28;20418;-73
2023/08/16 04:09:06;;;;;;;0.00;0.00;;;;;;;12.94;94.13;100741.94;5047549;28;20717;-72
2023/08/16 04:11:32;;;;;;;0.00;0.00;;;;;;;12.94;94.07;100744.66;5047197;28;20048;-73
2023/08/16 04:13:57;;;;;;;0.00;0.00;;;;;;;12.94;94.26;100744.66;5049887;28;20057;-73
2023/08/16 04:16:23;;;;;;;0.00;0.00;;;;;;;12.91;94.13;100737.81;5054863;28;20475;-73
2023/08/16 04:18:50;;;;;;;0.00;0.00;;;;;;;12.95;93.71;100749.03;5032468;28;20456;-72
2023/08/16 04:21:15;;;;;;;0.00;0.00;;;;;;;12.96;93.95;100747.16;5070231;28;20078;-73
2023/08/16 04:23:41;;;;;;;0.00;0.00;;;;;;;12.91;93.91;100750.72;5019708;28;20037;-72
2023/08/16 04:26:07;;;;;;;0.00;0.00;;;;;;;12.90;93.77;100749.06;5036149;28;20474;-73
2023/08/16 04:28:32;;;;;;;0.00;0.00;;;;;;;12.87;93.80;100744.13;5039921;28;20029;-73
2023/08/16 04:30:59;;;;;;;0.00;0.00;;;;;;;12.86;93.81;100747.94;5053401;28;20036;-73
2023/08/16 04:33:25;;;;;;;0.00;0.00;;;;;;;12.86;93.42;100753.44;5035650;28;20017;-73
2023/08/16 04:35:50;;;;;;;0.00;0.00;;;;;;;12.85;93.62;100757.28;5054771;28;20043;-73
2023/08/16 04:38:16;;;;;;;0.00;0.00;;;;;;;12.88;93.42;100763.06;5068468;28;20063;-73
2023/08/16 04:40:41;;;;;;;0.00;0.00;;;;;;;12.88;93.32;100763.06;5036253;28;20037;-73
2023/08/16 04:43:06;;;;;;;0.00;0.00;;;;;;;12.89;93.99;100761.13;5022353;28;20559;-73
2023/08/16 04:45:32;;;;;;;0.00;0.00;;;;;;;12.82;93.44;100757.81;5033240;28;20033;-72
2023/08/16 04:47:57;;;;;;;0.00;0.00;;;;;;;12.84;94.24;100761.13;5034293;28;20045;-72
2023/08/16 04:50:23;;;;;;;0.00;0.00;;;;;;;12.81;93.94;100767.16;5012570;28;20120;-73
2023/08/16 04:52:48;;;;;;;0.00;0.00;;;;;;;12.81;93.98;100762.50;5033981;28;20052;-74
2023/08/16 04:55:15;;;;;;;0.00;0.00;;;;;;;12.71;93.80;100746.84;5010303;28;20396;-71
2023/08/16 04:57:40;;;;;;;0.00;0.00;;;;;;;12.80;93.92;100766.34;5043663;28;20025;-71
2023/08/16 05:00:10;;;;;;;0.00;0.00;;;;;;;12.83;93.61;100770.47;5014626;28;20025;-73
2023/08/16 05:02:35;;;;;;;0.00;0.00;;;;;;;12.84;93.84;100778.41;5027864;28;20037;-73
2023/08/16 05:05:00;;;;;;;0.00;0.00;;;;;;;12.83;93.97;100773.19;5031542;28;20033;-72
2023/08/16 05:07:26;;;;;;;0.00;0.00;;;;;;;12.84;94.12;100763.88;5047817;28;20537;-73
2023/08/16 05:09:51;;;;;;;0.00;0.00;;;;;;;12.87;94.10;100772.38;5026792;28;20056;-74
2023/08/16 05:12:16;;;;;;;0.00;0.00;;;;;;;12.90;93.78;100771.00;5021089;28;20116;-73
2023/08/16 05:14:42;;;;;;;0.00;0.00;;;;;;;12.95;93.33;100773.75;4981454;28;20037;-73
2023/08/16 05:17:08;;;;;;;0.00;0.00;;;;;;;12.97;92.96;100777.06;5013899;28;20065;-73
2023/08/16 05:19:34;;;;;;;0.00;0.00;;;;;;;12.99;93.29;100780.34;5032511;28;20068;-74
2023/08/16 05:22:00;;;;;;;0.00;0.00;;;;;;;13.02;93.01;100779.78;5021533;28;20044;-73
2023/08/16 05:24:25;;;;;;;0.00;0.00;;;;;;;13.07;92.88;100779.81;5031865;28;20025;-73
2023/08/16 05:26:50;;;;;;;0.00;0.00;;;;;;;13.04;93.29;100780.38;5013421;28;20036;-73
2023/08/16 05:29:16;;;;;;;0.00;0.00;;;;;;;13.12;92.66;100775.44;5021570;28;20841;-74
2023/08/16 05:31:41;;;;;;;0.00;0.00;;;;;;;13.16;92.54;100785.56;5027341;28;20524;-73
2023/08/16 05:34:07;;;;;;;0.00;0.00;;;;;;;13.21;92.13;100782.81;5012131;28;20033;-73
2023/08/16 05:36:32;;;;;;;0.00;0.00;;;;;;;13.25;92.74;100786.66;5020590;28;20021;-73
2023/08/16 05:38:58;;;;;;;0.00;0.00;;;;;;;13.30;92.41;100788.59;5013586;28;20158;-74
2023/08/16 05:41:23;;;;;;;0.00;0.00;;;;;;;13.32;92.16;100782.84;5027466;28;20030;-74
2023/08/16 05:43:48;;;;;;;0.00;0.00;;;;;;;13.42;91.90;100800.16;5047359;28;20412;-73
2023/08/16 05:46:14;;;;;;;0.00;0.00;;;;;;;13.50;91.60;100797.94;5066735;28;20434;-74
2023/08/16 05:48:39;;;;;;;0.00;0.00;;;;;;;13.56;91.78;100800.41;5044868;28;20036;-74
2023/08/16 05:51:05;;;;;;;0.00;0.00;;;;;;;13.59;91.12;100799.88;5032726;28;20051;-74
2023/08/16 05:53:30;;;;;;;0.00;0.00;;;;;;;13.66;91.01;100801.50;5049174;28;20040;-73
2023/08/16 05:55:55;;;;;;;0.00;0.00;;;;;;;13.71;90.85;100796.81;5049934;28;20770;-72
2023/08/16 05:58:21;;;;;;;0.00;0.00;;;;;;;13.76;90.32;100805.03;5050086;28;20032;-73
2023/08/16 06:00:47;;;;;;;0.00;0.00;;;;;;;13.85;90.77;100801.75;5033467;28;20029;-74
2023/08/16 06:03:15;;;;;;;0.00;0.00;;;;;;;13.87;90.35;100799.53;5049800;28;20489;-73
2023/08/16 06:05:41;;;;;;;0.00;0.00;;;;;;;13.96;90.25;100803.38;5050947;28;20021;-72
2023/08/16 06:08:08;;;;;;;0.00;0.00;;;;;;;14.03;89.78;100798.41;5031275;28;20064;-73
2023/08/16 06:10:33;;;;;;;0.00;0.00;;;;;;;14.11;89.83;100800.53;5033909;28;20036;-73
2023/08/16 06:12:59;;;;;;;0.00;0.00;;;;;;;14.18;89.34;100796.66;5062893;28;20039;-73
2023/08/16 06:15:24;;;;;;;0.00;0.00;;;;;;;14.29;89.02;100801.03;5066343;28;20047;-73
2023/08/16 06:17:49;;;;;;;0.00;0.00;;;;;;;14.40;88.85;100813.63;5049564;28;20047;-73
2023/08/16 06:20:15;;;;;;;0.00;0.00;;;;;;;14.46;89.05;100812.50;5033271;28;20045;-73
2023/08/16 06:22:40;;;;;;;0.00;0.00;;;;;;;14.55;88.44;100809.16;5045820;28;20570;-71
2023/08/16 06:25:07;;;;;;;0.00;0.00;;;;;;;14.63;88.28;100806.69;5017983;28;20040;-74
2023/08/16 06:27:37;;;;;;;0.00;0.00;;;;;;;14.72;87.86;100809.66;5067124;28;20063;-75
2023/08/16 06:30:06;;;;;;;0.00;0.00;;;;;;;14.81;87.61;100805.19;5015421;28;20215;-75
2023/08/16 06:32:31;;;;;;;0.00;0.00;;;;;;;14.92;87.54;100816.13;5029229;28;20028;-70
2023/08/16 06:34:57;;;;;;;0.00;0.00;;;;;;;14.97;87.06;100799.59;5031553;28;20040;-72
2023/08/16 06:37:23;;;;;;;0.00;0.00;;;;;;;15.07;87.27;100807.78;5045378;28;20025;-73
2023/08/16 06:39:48;;;;;;;0.00;0.00;;;;;;;15.17;86.96;100810.44;5015592;28;20475;-73
2023/08/16 06:42:14;;;;;;;0.00;0.00;;;;;;;15.23;86.65;100804.88;5044212;28;20049;-73
2023/08/16 06:44:47;;;;;;;0.00;0.00;;;;;;;15.26;86.37;100804.28;5024412;28;20013;-75
2023/08/16 06:47:13;;;;;;;0.00;0.00;;;;;;;15.40;86.01;100808.03;5043507;28;20044;-74
2023/08/16 06:49:38;;;;;;;0.00;0.00;;;;;;;15.56;85.80;100813.41;5009981;28;20029;-74
2023/08/16 06:52:04;;;;;;;0.00;0.00;;;;;;;15.78;85.26;100823.94;5042292;28;20044;-72
2023/08/16 06:54:29;;;;;;;0.00;0.00;;;;;;;15.87;85.16;100820.31;5036382;28;20113;-74
2023/08/16 06:56:57;;;;;;;0.00;0.00;;;;;;;15.99;84.49;100821.81;5046056;28;20376;-73
2023/08/16 06:59:24;;;;;;;0.00;0.00;;;;;;;16.08;83.91;100827.50;5030520;28;20033;-73
2023/08/16 07:01:50;;;;;;;0.00;0.00;;;;;;;16.13;83.71;100811.72;5029743;28;20028;-74
2023/08/16 07:04:16;;;;;;;0.00;0.00;;;;;;;16.25;83.36;100814.06;5031058;28;20395;-75
2023/08/16 07:06:41;;;;;;;0.00;0.00;;;;;;;16.37;83.22;100810.91;5044570;28;20025;-73
2023/08/16 07:09:14;;;;;;;0.00;0.00;;;;;;;16.62;82.36;100830.97;5024599;28;20541;-74
2023/08/16 07:11:39;;;;;;;0.00;0.00;;;;;;;16.72;82.15;100825.34;5063811;28;20029;-74
2023/08/16 07:14:05;;;;;;;0.00;0.00;;;;;;;16.85;81.72;100823.75;5026054;28;20036;-72
2023/08/16 07:16:31;;;;;;;0.00;0.00;;;;;;;16.93;81.26;100818.41;5031438;28;20036;-74
2023/08/16 07:19:24;;;;;;;0.00;0.00;;;;;;;17.15;81.17;100827.22;5011603;28;20506;-74
2023/08/16 07:21:50;;;;;;;0.00;0.00;;;;;;;17.22;80.51;100817.41;5044516;28;20463;-75
2023/08/16 07:24:15;;;;;;;0.00;0.00;;;;;;;17.23;80.23;100805.25;5063964;28;20036;-75
2023/08/16 07:26:40;;;;;;;0.00;0.00;;;;;;;17.43;80.23;100828.13;5025049;28;20028;-75
2023/08/16 07:29:16;;;;;;;0.00;0.00;;;;;;;17.60;79.59;100833.91;5065007;28;20043;-75
2023/08/16 07:31:41;;;;;;;0.00;0.00;;;;;;;17.60;79.04;100814.56;5049077;28;20032;-75
2023/08/16 07:34:06;;;;;;;0.00;0.00;;;;;;;17.82;78.46;100835.19;5047193;28;20040;-74
2023/08/16 07:36:36;;;;;;;0.00;0.00;;;;;;;17.88;78.34;100822.91;5043741;28;20026;-74
2023/08/16 07:39:01;;;;;;;0.00;0.00;;;;;;;18.00;77.18;100824.38;5044609;28;20080;-75
2023/08/16 07:41:27;;;;;;;0.00;0.00;;;;;;;18.07;77.00;100822.03;5048665;28;20493;-74
2023/08/16 07:43:52;;;;;;;0.00;0.00;;;;;;;18.27;76.80;100829.94;4995983;28;20045;-75
2023/08/16 07:46:19;;;;;;;0.00;0.00;;;;;;;18.22;75.83;100813.41;5003944;28;20090;-75
2023/08/16 07:48:46;;;;;;;0.00;0.00;;;;;;;18.39;75.34;100831.34;5023586;28;20060;-77
2023/08/16 07:51:15;;;;;;;0.00;0.00;;;;;;;18.50;75.20;100818.94;5019031;28;20443;-76
2023/08/16 07:53:43;;;;;;;0.00;0.00;;;;;;;18.65;74.48;100818.59;5043576;28;20037;-75
2023/08/16 07:56:08;;;;;;;0.00;0.00;;;;;;;18.80;73.87;100836.00;5046039;28;20024;-78
2023/08/16 07:58:34;;;;;;;0.00;0.00;;;;;;;18.80;73.87;100819.38;5050757;28;20473;-79
2023/08/16 08:00:59;;;;;;;0.00;0.00;;;;;;;18.92;73.61;100816.91;5025391;28;20029;-77
2023/08/16 08:03:30;;;;;;;0.00;0.00;;;;;;;19.06;73.02;100821.59;5025822;28;20032;-77
2023/08/16 08:06:03;;;;;;;0.00;0.00;;;;;;;19.22;73.16;100819.28;5057801;28;20430;-78
2023/08/16 08:08:28;;;;;;;0.00;0.00;;;;;;;19.42;72.47;100829.00;5031693;28;20031;-78
2023/08/16 08:10:59;;;;;;;0.00;0.00;;;;;;;19.48;71.91;100823.03;5045509;28;20033;-77
2023/08/16 08:13:24;;;;;;;0.00;0.00;;;;;;;19.69;71.43;100833.59;5046416;28;20049;-78
2023/08/16 08:15:52;;;;;;;0.00;0.00;;;;;;;19.77;70.81;100823.66;5018762;28;20028;-76
2023/08/16 08:18:17;;;;;;;0.00;0.00;;;;;;;19.84;70.66;100818.53;5065714;28;20050;-77
2023/08/16 08:20:43;;;;;;;0.00;0.00;;;;;;;19.99;69.92;100825.59;5049315;28;20029;-75
2023/08/16 08:23:10;;;;;;;0.00;0.00;;;;;;;20.09;69.90;100832.84;5048536;28;20056;-75
2023/08/16 08:25:36;;;;;;;0.00;0.00;;;;;;;20.18;69.13;100828.13;5036751;28;20096;-76
2023/08/16 08:28:09;;;;;;;0.00;0.00;;;;;;;20.33;68.74;100829.66;5030593;28;20374;-79
2023/08/16 08:30:34;;;;;;;0.00;0.00;;;;;;;20.40;68.40;100818.91;5050898;28;20029;-77
2023/08/16 08:33:07;;;;;;;0.00;0.00;;;;;;;20.53;67.93;100822.66;5012910;28;20467;-76
2023/08/16 08:35:35;;;;;;;0.00;0.00;;;;;;;20.66;67.83;100824.53;5037345;28;20025;-77
2023/08/16 08:38:04;;;;;;;0.00;0.00;;;;;;;20.73;67.25;100827.66;5028499;28;20040;-76
2023/08/16 08:40:32;;;;;;;0.00;0.00;;;;;;;20.97;66.67;100843.03;5016017;28;20092;-77
2023/08/16 08:42:59;;;;;;;0.00;0.00;;;;;;;21.07;66.89;100837.16;5013478;28;20041;-78
2023/08/16 08:45:26;;;;;;;0.00;0.00;;;;;;;21.19;65.80;100833.69;5030571;28;20028;-75
2023/08/16 08:48:27;;;;;;;0.00;0.00;;;;;;;21.38;65.79;100847.25;5051496;28;20025;-77
2023/08/16 08:50:53;;;;;;;0.00;0.00;;;;;;;21.47;64.99;100838.91;5027406;28;20037;-76
2023/08/16 08:53:23;;;;;;;0.00;0.00;;;;;;;21.73;64.85;100851.97;5050571;28;20533;-79
2023/08/16 08:55:52;;;;;;;0.00;0.00;;;;;;;21.72;64.32;100828.88;5067356;28;20371;-77
2023/08/16 08:58:19;;;;;;;0.00;0.00;;;;;;;21.96;63.31;100846.97;5035471;28;20818;-76
2023/08/16 09:00:46;;;;;;;0.00;0.00;;;;;;;22.13;63.15;100835.75;5047592;28;20024;-73
2023/08/16 09:03:12;;;;;;;0.00;0.00;;;;;;;22.35;62.35;100828.31;5049978;28;20475;-76
2023/08/16 09:05:44;;;;;;;0.00;0.00;;;;;;;22.90;60.99;100842.41;5062474;28;20033;-76
2023/08/16 09:08:13;;;;;;;0.00;0.00;;;;;;;23.30;59.16;100836.34;5050335;28;20024;-75
2023/08/16 09:10:46;;;;;;;0.00;0.00;;;;;;;23.63;57.67;100835.53;5052638;28;20036;-77
2023/08/16 09:13:12;;;;;;;0.00;0.00;;;;;;;23.91;56.68;100848.88;5065839;28;20083;-76
2023/08/16 09:15:39;;;;;;;0.00;0.00;;;;;;;23.85;56.08;100831.50;5026124;28;20399;-76
2023/08/16 09:18:12;;;;;;;0.00;0.00;;;;;;;24.05;56.35;100847.38;5048024;28;20065;-76
2023/08/16 09:20:45;;;;;;;0.00;0.00;;;;;;;24.05;55.56;100827.00;5033065;28;20071;-78
2023/08/16 09:23:15;;;;;;;0.00;0.00;;;;;;;24.37;55.72;100835.59;5051365;28;20023;-78
2023/08/16 09:25:44;;;;;;;0.00;0.00;;;;;;;26.29;51.41;100848.28;5027596;28;20048;-76
2023/08/16 09:28:16;;;;;;;0.00;0.00;;;;;;;29.52;43.79;100840.34;5064574;28;20095;-77
2023/08/16 09:30:42;;;;;;;0.00;0.00;;;;;;;32.70;38.37;100840.53;5067944;28;20035;-76
2023/08/16 09:33:08;;;;;;;0.00;0.00;;;;;;;36.24;33.32;100841.50;5049232;28;20044;-77
2023/08/16 09:35:51;;;;;;;0.00;0.00;;;;;;;39.08;29.45;100847.56;5063776;28;20029;-78
2023/08/16 09:38:24;;;;;;;0.00;0.00;;;;;;;41.62;26.98;100835.44;5051762;28;20108;-76
2023/08/16 09:40:52;;;;;;;0.00;0.00;;;;;;;43.12;24.90;100840.81;5034785;28;20644;-76
2023/08/16 09:43:22;;;;;;;0.00;0.00;;;;;;;44.67;23.24;100825.19;5048385;28;20072;-77
2023/08/16 09:45:57;;;;;;;0.00;0.00;;;;;;;46.15;21.09;100829.09;5028570;28;20503;-77
2023/08/16 09:48:25;;;;;;;0.00;0.00;;;;;;;47.36;20.59;100824.81;5031024;28;20382;-76
2023/08/16 09:51:00;;;;;;;0.00;0.00;;;;;;;48.61;19.22;100825.38;5018728;28;20033;-76
2023/08/16 09:53:25;;;;;;;0.00;0.00;;;;;;;50.05;18.58;100817.56;5002178;28;20084;-77
2023/08/16 09:55:57;;;;;;;0.00;0.00;;;;;;;51.52;17.33;100809.06;5027341;28;20471;-77
2023/08/16 09:58:27;;;;;;;0.00;0.00;;;;;;;52.41;15.28;100806.34;5066125;28;20106;-76
2023/08/16 10:00:55;;;;;;;0.00;0.00;;;;;;;53.31;14.62;100804.03;5035040;28;20017;-76
2023/08/16 10:03:24;;;;;;;0.00;0.00;;;;;;;53.59;14.43;100799.00;5016192;28;20063;-77
2023/08/16 10:05:50;;;;;;;0.00;0.00;;;;;;;54.75;13.89;100807.84;5032823;28;20439;-76
2023/08/16 10:08:17;;;;;;;0.00;0.00;;;;;;;54.93;12.54;100794.31;5064947;28;20021;-76
2023/08/16 10:10:43;;;;;;;0.00;0.00;;;;;;;55.20;12.82;100788.28;5066458;28;20028;-74
2023/08/16 10:13:09;;;;;;;0.00;0.00;;;;;;;55.55;12.09;100799.84;5061154;28;20032;-76
2023/08/16 10:15:37;;;;;;;0.00;0.00;;;;;;;56.12;12.12;100790.16;5014126;28;20029;-76
2023/08/16 10:18:06;;;;;;;0.00;0.00;;;;;;;56.59;12.13;100783.06;5043657;28;20123;-76
2023/08/16 10:20:36;;;;;;;0.00;0.00;;;;;;;57.37;10.98;100788.84;5061966;28;20361;-77
2023/08/16 10:23:03;;;;;;;0.00;0.00;;;;;;;57.31;10.69;100786.94;5045807;28;20128;-76
2023/08/16 10:25:42;;;;;;;0.00;0.00;;;;;;;57.29;10.47;100783.00;5032877;28;20469;-78
2023/08/16 10:28:07;;;;;;;0.00;0.00;;;;;;;57.77;10.84;100776.41;5027358;28;20032;-76
2023/08/16 10:30:35;;;;;;;0.00;0.00;;;;;;;57.97;10.10;100772.41;5028260;28;20104;-74
2023/08/16 10:33:18;;;;;;;0.00;0.00;;;;;;;58.46;10.15;100778.19;5032545;28;20024;-76
2023/08/16 10:35:44;;;;;;;;;;;;;;;58.99;9.59;100771.06;5045244;28;20021;-76
2023/08/16 10:38:10;;;;;;;0.00;0.00;;;;;;;58.73;9.36;100766.59;5045170;28;20692;-76
2023/08/16 10:40:35;;;;;;;0.00;0.00;;;;;;;58.95;9.16;100764.06;5014440;28;20352;-74
2023/08/16 10:43:06;;;;;;;0.00;0.00;;;;;;;59.38;8.81;100774.44;5032080;28;20045;-74
2023/08/16 10:45:34;;;;;;;0.00;0.00;;;;;;;59.82;9.03;100766.22;5026982;28;20032;-74
2023/08/16 10:48:10;;;;;;;0.00;0.00;;;;;;;60.33;8.58;100766.66;5032036;28;20045;-76
2023/08/16 10:50:36;;;;;;;0.00;0.00;;;;;;;59.91;7.90;100768.44;5047474;28;20017;-75
2023/08/16 10:53:02;;;;;;;0.00;0.00;;;;;;;59.99;8.39;100754.38;5030956;28;20020;-74
2023/08/16 10:55:27;;;;;;;0.00;0.00;;;;;;;60.80;7.94;100767.47;5047300;28;20151;-76
2023/08/16 10:57:54;;;;;;;0.00;0.00;;;;;;;61.16;8.04;100773.94;5008101;28;20022;-74
2023/08/16 11:00:27;;;;;;;0.00;0.00;;;;;;;62.05;8.32;100773.22;5058938;28;20029;-74
2023/08/16 11:02:54;;;;;;;0.00;0.00;;;;;;;62.84;7.94;100766.94;5057004;28;20562;-74
2023/08/16 11:05:21;;;;;;;0.00;0.00;;;;;;;62.76;6.67;100767.94;5029062;28;20526;-75
2023/08/16 11:07:47;;;;;;;0.00;0.00;;;;;;;60.22;7.25;100750.31;5055276;28;20045;-75
2023/08/16 11:10:13;;;;;;;0.00;0.00;;;;;;;56.13;9.04;100736.00;5047364;28;20025;-73
2023/08/16 11:12:39;;;;;;;0.00;0.00;;;;;;;51.12;11.33;100731.63;5036511;28;20116;-75
2023/08/16 11:15:05;;;;;;;0.00;0.00;;;;;;;48.36;12.98;100719.88;5030537;28;20111;-75
2023/08/16 11:17:32;;;;;;;0.00;0.00;;;;;;;51.61;12.13;100724.19;5026289;28;20028;-75
2023/08/16 11:20:00;;;;;;;0.00;0.00;;;;;;;55.25;10.48;100728.75;5028114;28;20083;-75
2023/08/16 11:22:26;;;;;;;0.00;0.00;;;;;;;58.21;9.07;100731.84;5038436;28;20029;-75
2023/08/16 11:24:51;;;;;;;0.00;0.00;;;;;;;60.63;8.03;100753.59;5024815;28;20029;-75
2023/08/16 11:27:22;;;;;;;0.00;0.00;;;;;;;62.04;7.33;100753.94;5051916;28;20035;-76